sensor_id;sensor_type;location;lat;lon;timestamp;temperature;humidity
37285;DHT22;23172;53.550;9.964;2023-02-28T00:02:53;6.10;71.20
37285;DHT22;23172;53.550;9.964;2023-02-28T00:07:57;6.10;71.00
37285;DHT22;23172;53.550;9.964;2023-02-28T00:13:01;6.00;71.00
37285;DHT22;23172;53.550;9.964;2023-02-28T00:18:03;6.00;71.10
37285;DHT22;23172;53.550;9.964;2023-02-28T00:23:06;5.90;71.10
37285;DHT22;23172;53.550;9.964;2023-02-28T00:28:08;5.80;71.20
37285;DHT22;23172;53.550;9.964;2023-02-28T00:33:10;5.80;71.20
37285;DHT22;23172;53.550;9.964;2023-02-28T00:38:13;5.80;71.10
37285;DHT22;23172;53.550;9.964;2023-02-28T00:43:15;5.80;71.30
37285;DHT22;23172;53.550;9.964;2023-02-28T00:48:17;5.80;71.60
37285;DHT22;23172;53.550;9.964;2023-02-28T00:53:20;5.80;71.90
37285;DHT22;23172;53.550;9.964;2023-02-28T00:58:22;5.80;71.80
37285;DHT22;23172;53.550;9.964;2023-02-28T01:03:24;5.80;71.90
37285;DHT22;23172;53.550;9.964;2023-02-28T01:08:27;5.80;71.80
37285;DHT22;23172;53.550;9.964;2023-02-28T01:13:29;5.80;71.90
37285;DHT22;23172;53.550;9.964;2023-02-28T01:18:31;5.70;71.90
37285;DHT22;23172;53.550;9.964;2023-02-28T01:23:34;5.70;72.10
37285;DHT22;23172;53.550;9.964;2023-02-28T01:28:37;5.70;72.30
37285;DHT22;23172;53.550;9.964;2023-02-28T01:33:39;5.60;72.40
37285;DHT22;23172;53.550;9.964;2023-02-28T01:38:42;5.60;72.40
37285;DHT22;23172;53.550;9.964;2023-02-28T01:43:57;5.60;72.70
37285;DHT22;23172;53.550;9.964;2023-02-28T01:49:04;5.60;73.00
37285;DHT22;23172;53.550;9.964;2023-02-28T01:54:10;5.60;72.90
37285;DHT22;23172;53.550;9.964;2023-02-28T01:59:21;5.60;72.90
37285;DHT22;23172;53.550;9.964;2023-02-28T02:04:27;5.60;73.20
37285;DHT22;23172;53.550;9.964;2023-02-28T02:09:34;5.50;73.40
37285;DHT22;23172;53.550;9.964;2023-02-28T02:14:48;5.50;73.80
37285;DHT22;23172;53.550;9.964;2023-02-28T02:25:43;5.50;74.30
37285;DHT22;23172;53.550;9.964;2023-02-28T02:36:35;5.40;74.80
37285;DHT22;23172;53.550;9.964;2023-02-28T02:41:41;5.30;75.10
37285;DHT22;23172;53.550;9.964;2023-02-28T02:46:45;5.30;75.40
37285;DHT22;23172;53.550;9.964;2023-02-28T02:51:50;5.20;75.30
37285;DHT22;23172;53.550;9.964;2023-02-28T02:56:54;5.10;75.60
37285;DHT22;23172;53.550;9.964;2023-02-28T03:01:58;5.10;76.10
37285;DHT22;23172;53.550;9.964;2023-02-28T03:07:02;5.00;76.40
37285;DHT22;23172;53.550;9.964;2023-02-28T03:12:06;4.90;77.00
37285;DHT22;23172;53.550;9.964;2023-02-28T03:17:26;4.80;78.30
37285;DHT22;23172;53.550;9.964;2023-02-28T03:22:44;4.70;79.10
37285;DHT22;23172;53.550;9.964;2023-02-28T03:27:56;4.60;79.60
37285;DHT22;23172;53.550;9.964;2023-02-28T03:33:06;4.50;79.80
37285;DHT22;23172;53.550;9.964;2023-02-28T03:38:15;4.50;80.30
37285;DHT22;23172;53.550;9.964;2023-02-28T03:43:22;4.40;81.10
37285;DHT22;23172;53.550;9.964;2023-02-28T03:48:29;4.40;81.60
37285;DHT22;23172;53.550;9.964;2023-02-28T03:53:36;4.40;82.30
37285;DHT22;23172;53.550;9.964;2023-02-28T03:58:42;4.30;83.50
37285;DHT22;23172;53.550;9.964;2023-02-28T04:03:45;4.20;84.20
37285;DHT22;23172;53.550;9.964;2023-02-28T04:08:49;4.20;84.60
37285;DHT22;23172;53.550;9.964;2023-02-28T04:13:51;4.10;84.90
37285;DHT22;23172;53.550;9.964;2023-02-28T04:18:52;4.10;85.70
37285;DHT22;23172;53.550;9.964;2023-02-28T04:23:56;4.10;86.70
37285;DHT22;23172;53.550;9.964;2023-02-28T04:29:02;4.00;87.10
37285;DHT22;23172;53.550;9.964;2023-02-28T04:34:04;4.00;87.90
37285;DHT22;23172;53.550;9.964;2023-02-28T04:39:08;3.90;88.80
37285;DHT22;23172;53.550;9.964;2023-02-28T04:44:10;3.80;88.90
37285;DHT22;23172;53.550;9.964;2023-02-28T04:49:12;3.90;88.70
37285;DHT22;23172;53.550;9.964;2023-02-28T04:54:16;3.90;88.80
37285;DHT22;23172;53.550;9.964;2023-02-28T04:59:18;3.90;88.90
37285;DHT22;23172;53.550;9.964;2023-02-28T05:04:20;3.90;89.00
37285;DHT22;23172;53.550;9.964;2023-02-28T05:09:24;3.80;89.20
37285;DHT22;23172;53.550;9.964;2023-02-28T05:14:26;3.90;89.50
37285;DHT22;23172;53.550;9.964;2023-02-28T05:19:28;3.90;89.80
37285;DHT22;23172;53.550;9.964;2023-02-28T05:24:31;3.80;90.30
37285;DHT22;23172;53.550;9.964;2023-02-28T05:29:33;3.70;90.50
37285;DHT22;23172;53.550;9.964;2023-02-28T05:34:36;3.70;90.80
37285;DHT22;23172;53.550;9.964;2023-02-28T05:39:39;3.60;91.00
37285;DHT22;23172;53.550;9.964;2023-02-28T05:44:41;3.60;91.10
37285;DHT22;23172;53.550;9.964;2023-02-28T05:49:43;3.60;91.10
37285;DHT22;23172;53.550;9.964;2023-02-28T05:54:47;3.60;91.10
37285;DHT22;23172;53.550;9.964;2023-02-28T05:59:49;3.60;91.10
37285;DHT22;23172;53.550;9.964;2023-02-28T06:04:51;3.60;91.20
37285;DHT22;23172;53.550;9.964;2023-02-28T06:09:54;3.60;91.30
37285;DHT22;23172;53.550;9.964;2023-02-28T06:14:56;3.60;91.30
37285;DHT22;23172;53.550;9.964;2023-02-28T06:19:58;3.60;91.30
37285;DHT22;23172;53.550;9.964;2023-02-28T06:25:01;3.60;91.50
37285;DHT22;23172;53.550;9.964;2023-02-28T06:30:03;3.60;91.70
37285;DHT22;23172;53.550;9.964;2023-02-28T06:35:06;3.60;92.30
37285;DHT22;23172;53.550;9.964;2023-02-28T06:40:11;3.60;92.00
37285;DHT22;23172;53.550;9.964;2023-02-28T06:45:13;3.60;92.00
37285;DHT22;23172;53.550;9.964;2023-02-28T06:50:15;3.50;92.10
37285;DHT22;23172;53.550;9.964;2023-02-28T06:55:21;3.50;92.10
37285;DHT22;23172;53.550;9.964;2023-02-28T07:00:23;3.50;92.20
37285;DHT22;23172;53.550;9.964;2023-02-28T07:05:25;3.50;92.30
37285;DHT22;23172;53.550;9.964;2023-02-28T07:10:29;3.50;92.40
37285;DHT22;23172;53.550;9.964;2023-02-28T07:15:31;3.50;92.40
37285;DHT22;23172;53.550;9.964;2023-02-28T07:20:33;3.50;92.50
37285;DHT22;23172;53.550;9.964;2023-02-28T07:25:36;3.60;92.50
37285;DHT22;23172;53.550;9.964;2023-02-28T07:30:38;3.60;92.40
37285;DHT22;23172;53.550;9.964;2023-02-28T07:35:40;3.70;92.40
37285;DHT22;23172;53.550;9.964;2023-02-28T07:40:44;3.70;92.40
37285;DHT22;23172;53.550;9.964;2023-02-28T07:45:45;3.80;92.30
37285;DHT22;23172;53.550;9.964;2023-02-28T07:50:54;3.90;92.30
37285;DHT22;23172;53.550;9.964;2023-02-28T07:55:59;4.00;92.30
37285;DHT22;23172;53.550;9.964;2023-02-28T08:01:05;4.00;92.20
37285;DHT22;23172;53.550;9.964;2023-02-28T08:06:15;4.10;92.10
37285;DHT22;23172;53.550;9.964;2023-02-28T08:11:19;4.20;92.00
37285;DHT22;23172;53.550;9.964;2023-02-28T08:16:20;4.30;92.00
37285;DHT22;23172;53.550;9.964;2023-02-28T08:21:23;4.40;91.90
37285;DHT22;23172;53.550;9.964;2023-02-28T08:26:26;4.50;91.70
37285;DHT22;23172;53.550;9.964;2023-02-28T08:31:28;4.50;91.40
37285;DHT22;23172;53.550;9.964;2023-02-28T08:36:30;4.60;91.30
37285;DHT22;23172;53.550;9.964;2023-02-28T08:41:33;4.70;91.30
37285;DHT22;23172;53.550;9.964;2023-02-28T08:46:35;4.80;91.30
37285;DHT22;23172;53.550;9.964;2023-02-28T08:51:38;4.90;91.10
37285;DHT22;23172;53.550;9.964;2023-02-28T08:56:43;4.90;90.90
37285;DHT22;23172;53.550;9.964;2023-02-28T09:01:44;5.00;90.60
37285;DHT22;23172;53.550;9.964;2023-02-28T09:06:46;5.20;90.30
37285;DHT22;23172;53.550;9.964;2023-02-28T09:11:50;5.20;89.70
37285;DHT22;23172;53.550;9.964;2023-02-28T09:16:52;5.30;88.90
37285;DHT22;23172;53.550;9.964;2023-02-28T09:21:54;5.40;88.80
37285;DHT22;23172;53.550;9.964;2023-02-28T09:26:57;5.50;88.50
37285;DHT22;23172;53.550;9.964;2023-02-28T09:32:00;5.50;87.50
37285;DHT22;23172;53.550;9.964;2023-02-28T09:37:02;5.60;86.30
37285;DHT22;23172;53.550;9.964;2023-02-28T09:42:05;5.70;84.90
37285;DHT22;23172;53.550;9.964;2023-02-28T09:47:13;5.80;84.40
37285;DHT22;23172;53.550;9.964;2023-02-28T09:52:19;5.90;81.40
37285;DHT22;23172;53.550;9.964;2023-02-28T09:57:31;5.80;79.40
37285;DHT22;23172;53.550;9.964;2023-02-28T10:03:05;5.90;79.90
37285;DHT22;23172;53.550;9.964;2023-02-28T10:08:13;6.00;75.90
37285;DHT22;23172;53.550;9.964;2023-02-28T10:13:22;6.10;77.20
37285;DHT22;23172;53.550;9.964;2023-02-28T10:18:33;6.10;75.20
37285;DHT22;23172;53.550;9.964;2023-02-28T10:23:38;6.20;75.10
37285;DHT22;23172;53.550;9.964;2023-02-28T10:28:42;6.20;73.40
37285;DHT22;23172;53.550;9.964;2023-02-28T10:33:44;6.30;73.10
37285;DHT22;23172;53.550;9.964;2023-02-28T10:38:47;6.30;72.20
37285;DHT22;23172;53.550;9.964;2023-02-28T10:43:50;6.40;72.10
37285;DHT22;23172;53.550;9.964;2023-02-28T10:49:02;6.50;71.60
37285;DHT22;23172;53.550;9.964;2023-02-28T10:54:05;6.50;70.70
37285;DHT22;23172;53.550;9.964;2023-02-28T10:59:26;6.60;70.10
37285;DHT22;23172;53.550;9.964;2023-02-28T11:04:34;6.60;69.80
37285;DHT22;23172;53.550;9.964;2023-02-28T11:09:40;6.70;69.70
37285;DHT22;23172;53.550;9.964;2023-02-28T11:14:48;6.80;68.00
37285;DHT22;23172;53.550;9.964;2023-02-28T11:19:53;6.90;67.70
37285;DHT22;23172;53.550;9.964;2023-02-28T11:24:57;6.90;67.10
37285;DHT22;23172;53.550;9.964;2023-02-28T11:30:01;6.90;65.70
37285;DHT22;23172;53.550;9.964;2023-02-28T11:35:17;7.00;65.30
37285;DHT22;23172;53.550;9.964;2023-02-28T11:40:30;7.10;64.40
37285;DHT22;23172;53.550;9.964;2023-02-28T11:45:44;7.00;61.80
37285;DHT22;23172;53.550;9.964;2023-02-28T11:50:54;7.10;61.90
37285;DHT22;23172;53.550;9.964;2023-02-28T11:56:03;7.20;61.40
37285;DHT22;23172;53.550;9.964;2023-02-28T12:01:21;7.30;61.00
37285;DHT22;23172;53.550;9.964;2023-02-28T12:06:31;7.40;61.00
37285;DHT22;23172;53.550;9.964;2023-02-28T12:11:43;7.50;59.90
37285;DHT22;23172;53.550;9.964;2023-02-28T12:17:00;7.50;59.50
37285;DHT22;23172;53.550;9.964;2023-02-28T12:22:31;7.40;59.50
37285;DHT22;23172;53.550;9.964;2023-02-28T12:27:36;7.30;59.30
37285;DHT22;23172;53.550;9.964;2023-02-28T12:32:42;7.30;58.90
37285;DHT22;23172;53.550;9.964;2023-02-28T12:37:49;7.20;59.20
37285;DHT22;23172;53.550;9.964;2023-02-28T12:42:56;7.20;58.80
37285;DHT22;23172;53.550;9.964;2023-02-28T12:48:01;7.30;58.60
37285;DHT22;23172;53.550;9.964;2023-02-28T12:53:08;7.40;58.60
37285;DHT22;23172;53.550;9.964;2023-02-28T12:58:14;7.50;58.60
37285;DHT22;23172;53.550;9.964;2023-02-28T13:03:42;7.70;58.30
37285;DHT22;23172;53.550;9.964;2023-02-28T13:09:09;7.80;58.10
37285;DHT22;23172;53.550;9.964;2023-02-28T13:14:25;7.80;57.80
37285;DHT22;23172;53.550;9.964;2023-02-28T13:19:30;7.80;57.50
37285;DHT22;23172;53.550;9.964;2023-02-28T13:24:48;7.80;57.80
37285;DHT22;23172;53.550;9.964;2023-02-28T13:29:51;7.70;57.10
37285;DHT22;23172;53.550;9.964;2023-02-28T13:40:31;7.70;57.40
37285;DHT22;23172;53.550;9.964;2023-02-28T13:45:37;7.90;57.20
37285;DHT22;23172;53.550;9.964;2023-02-28T13:50:41;7.90;57.20
37285;DHT22;23172;53.550;9.964;2023-02-28T13:55:46;7.90;56.60
37285;DHT22;23172;53.550;9.964;2023-02-28T14:01:05;7.90;56.30
37285;DHT22;23172;53.550;9.964;2023-02-28T14:06:20;7.90;56.30
37285;DHT22;23172;53.550;9.964;2023-02-28T14:11:36;7.90;56.20
37285;DHT22;23172;53.550;9.964;2023-02-28T14:16:40;7.90;55.60
37285;DHT22;23172;53.550;9.964;2023-02-28T14:22:03;7.80;55.40
37285;DHT22;23172;53.550;9.964;2023-02-28T14:32:43;7.90;55.30
37285;DHT22;23172;53.550;9.964;2023-02-28T14:37:47;8.00;55.30
37285;DHT22;23172;53.550;9.964;2023-02-28T14:42:57;7.90;55.00
37285;DHT22;23172;53.550;9.964;2023-02-28T14:48:01;8.00;55.00
37285;DHT22;23172;53.550;9.964;2023-02-28T14:53:10;8.10;55.10
37285;DHT22;23172;53.550;9.964;2023-02-28T14:58:23;8.10;55.10
37285;DHT22;23172;53.550;9.964;2023-02-28T15:03:31;8.10;54.90
37285;DHT22;23172;53.550;9.964;2023-02-28T15:08:33;8.10;55.50
37285;DHT22;23172;53.550;9.964;2023-02-28T15:13:40;8.10;55.10
37285;DHT22;23172;53.550;9.964;2023-02-28T15:18:46;8.10;55.00
37285;DHT22;23172;53.550;9.964;2023-02-28T15:23:52;8.10;55.10
37285;DHT22;23172;53.550;9.964;2023-02-28T15:28:59;8.10;55.00
37285;DHT22;23172;53.550;9.964;2023-02-28T15:34:04;8.10;55.10
37285;DHT22;23172;53.550;9.964;2023-02-28T15:39:19;8.10;55.10
37285;DHT22;23172;53.550;9.964;2023-02-28T15:44:27;8.10;55.30
37285;DHT22;23172;53.550;9.964;2023-02-28T15:49:37;8.00;54.80
37285;DHT22;23172;53.550;9.964;2023-02-28T15:54:40;8.00;54.80
37285;DHT22;23172;53.550;9.964;2023-02-28T15:59:50;8.00;54.80
37285;DHT22;23172;53.550;9.964;2023-02-28T16:04:58;8.00;54.60
37285;DHT22;23172;53.550;9.964;2023-02-28T16:10:01;7.90;54.50
37285;DHT22;23172;53.550;9.964;2023-02-28T16:15:08;7.80;54.70
37285;DHT22;23172;53.550;9.964;2023-02-28T16:20:13;7.80;54.80
37285;DHT22;23172;53.550;9.964;2023-02-28T16:25:17;7.80;54.80
37285;DHT22;23172;53.550;9.964;2023-02-28T16:30:23;7.70;54.90
37285;DHT22;23172;53.550;9.964;2023-02-28T16:35:25;7.70;55.10
37285;DHT22;23172;53.550;9.964;2023-02-28T16:40:28;7.70;55.20
37285;DHT22;23172;53.550;9.964;2023-02-28T16:45:36;7.60;55.20
37285;DHT22;23172;53.550;9.964;2023-02-28T16:50:38;7.60;55.50
37285;DHT22;23172;53.550;9.964;2023-02-28T16:55:40;7.50;55.60
37285;DHT22;23172;53.550;9.964;2023-02-28T17:00:43;7.50;56.00
37285;DHT22;23172;53.550;9.964;2023-02-28T17:05:45;7.40;56.30
37285;DHT22;23172;53.550;9.964;2023-02-28T17:10:47;7.40;56.50
37285;DHT22;23172;53.550;9.964;2023-02-28T17:15:50;7.30;56.70
37285;DHT22;23172;53.550;9.964;2023-02-28T17:20:52;7.20;56.90
37285;DHT22;23172;53.550;9.964;2023-02-28T17:25:54;7.20;57.10
37285;DHT22;23172;53.550;9.964;2023-02-28T17:30:57;7.10;57.20
37285;DHT22;23172;53.550;9.964;2023-02-28T17:35:59;7.10;57.50
37285;DHT22;23172;53.550;9.964;2023-02-28T17:41:02;7.10;57.60
37285;DHT22;23172;53.550;9.964;2023-02-28T17:46:05;7.00;57.80
37285;DHT22;23172;53.550;9.964;2023-02-28T17:51:09;7.00;58.20
37285;DHT22;23172;53.550;9.964;2023-02-28T17:56:12;7.00;58.40
37285;DHT22;23172;53.550;9.964;2023-02-28T18:01:16;6.90;58.50
37285;DHT22;23172;53.550;9.964;2023-02-28T18:06:20;6.90;58.80
37285;DHT22;23172;53.550;9.964;2023-02-28T18:11:23;6.90;59.00
37285;DHT22;23172;53.550;9.964;2023-02-28T18:16:27;6.80;59.40
37285;DHT22;23172;53.550;9.964;2023-02-28T18:21:29;6.80;59.60
37285;DHT22;23172;53.550;9.964;2023-02-28T18:26:31;6.80;59.80
37285;DHT22;23172;53.550;9.964;2023-02-28T18:31:34;6.70;60.00
37285;DHT22;23172;53.550;9.964;2023-02-28T18:36:36;6.70;61.10
37285;DHT22;23172;53.550;9.964;2023-02-28T18:41:39;6.60;60.30
37285;DHT22;23172;53.550;9.964;2023-02-28T18:46:43;6.60;60.60
37285;DHT22;23172;53.550;9.964;2023-02-28T18:51:45;6.60;60.80
37285;DHT22;23172;53.550;9.964;2023-02-28T18:56:47;6.60;61.40
37285;DHT22;23172;53.550;9.964;2023-02-28T19:01:51;6.60;61.20
37285;DHT22;23172;53.550;9.964;2023-02-28T19:06:53;6.50;61.30
37285;DHT22;23172;53.550;9.964;2023-02-28T19:11:55;6.50;61.50
37285;DHT22;23172;53.550;9.964;2023-02-28T19:16:59;6.50;61.80
37285;DHT22;23172;53.550;9.964;2023-02-28T19:22:00;6.50;61.90
37285;DHT22;23172;53.550;9.964;2023-02-28T19:27:02;6.50;62.20
37285;DHT22;23172;53.550;9.964;2023-02-28T19:32:05;6.40;62.50
37285;DHT22;23172;53.550;9.964;2023-02-28T19:37:08;6.40;62.60
37285;DHT22;23172;53.550;9.964;2023-02-28T19:42:10;6.30;62.60
37285;DHT22;23172;53.550;9.964;2023-02-28T19:47:14;6.30;62.80
37285;DHT22;23172;53.550;9.964;2023-02-28T19:52:16;6.30;62.90
37285;DHT22;23172;53.550;9.964;2023-02-28T19:57:18;6.30;62.90
37285;DHT22;23172;53.550;9.964;2023-02-28T20:02:21;6.30;63.00
37285;DHT22;23172;53.550;9.964;2023-02-28T20:07:23;6.20;63.00
37285;DHT22;23172;53.550;9.964;2023-02-28T20:12:25;6.20;63.30
37285;DHT22;23172;53.550;9.964;2023-02-28T20:17:28;6.20;63.70
37285;DHT22;23172;53.550;9.964;2023-02-28T20:22:30;6.20;64.10
37285;DHT22;23172;53.550;9.964;2023-02-28T20:27:32;6.10;64.50
37285;DHT22;23172;53.550;9.964;2023-02-28T20:32:36;6.10;65.10
37285;DHT22;23172;53.550;9.964;2023-02-28T20:37:39;6.10;65.60
37285;DHT22;23172;53.550;9.964;2023-02-28T20:42:41;6.10;66.20
37285;DHT22;23172;53.550;9.964;2023-02-28T20:47:44;6.00;66.60
37285;DHT22;23172;53.550;9.964;2023-02-28T20:52:46;6.00;66.60
37285;DHT22;23172;53.550;9.964;2023-02-28T20:57:47;6.00;67.10
37285;DHT22;23172;53.550;9.964;2023-02-28T21:02:51;5.90;67.40
37285;DHT22;23172;53.550;9.964;2023-02-28T21:07:53;5.90;67.20
37285;DHT22;23172;53.550;9.964;2023-02-28T21:12:55;5.90;67.80
37285;DHT22;23172;53.550;9.964;2023-02-28T21:17:59;5.90;67.20
37285;DHT22;23172;53.550;9.964;2023-02-28T21:23:00;5.90;67.10
37285;DHT22;23172;53.550;9.964;2023-02-28T21:28:02;5.80;67.10
37285;DHT22;23172;53.550;9.964;2023-02-28T21:33:05;5.80;66.90
37285;DHT22;23172;53.550;9.964;2023-02-28T21:38:07;5.80;66.60
37285;DHT22;23172;53.550;9.964;2023-02-28T21:43:09;5.70;66.40
37285;DHT22;23172;53.550;9.964;2023-02-28T21:48:12;5.70;66.20
37285;DHT22;23172;53.550;9.964;2023-02-28T21:53:14;5.70;66.10
37285;DHT22;23172;53.550;9.964;2023-02-28T21:58:16;5.70;66.10
37285;DHT22;23172;53.550;9.964;2023-02-28T22:03:19;5.60;66.00
37285;DHT22;23172;53.550;9.964;2023-02-28T22:08:21;5.60;65.90
37285;DHT22;23172;53.550;9.964;2023-02-28T22:13:23;5.60;65.90
37285;DHT22;23172;53.550;9.964;2023-02-28T22:18:26;5.60;65.90
37285;DHT22;23172;53.550;9.964;2023-02-28T22:23:28;5.60;65.70
37285;DHT22;23172;53.550;9.964;2023-02-28T22:28:30;5.50;65.20
37285;DHT22;23172;53.550;9.964;2023-02-28T22:33:33;5.50;64.90
37285;DHT22;23172;53.550;9.964;2023-02-28T22:38:35;5.50;64.80
37285;DHT22;23172;53.550;9.964;2023-02-28T22:43:37;5.50;64.70
37285;DHT22;23172;53.550;9.964;2023-02-28T22:48:41;5.50;64.60
37285;DHT22;23172;53.550;9.964;2023-02-28T22:53:44;5.50;64.50
37285;DHT22;23172;53.550;9.964;2023-02-28T22:58:48;5.40;64.40
37285;DHT22;23172;53.550;9.964;2023-02-28T23:03:52;5.40;64.50
37285;DHT22;23172;53.550;9.964;2023-02-28T23:08:55;5.40;64.50
37285;DHT22;23172;53.550;9.964;2023-02-28T23:13:58;5.40;64.60
37285;DHT22;23172;53.550;9.964;2023-02-28T23:19:04;5.40;64.90
37285;DHT22;23172;53.550;9.964;2023-02-28T23:24:08;5.30;65.20
37285;DHT22;23172;53.550;9.964;2023-02-28T23:29:11;5.40;65.60
37285;DHT22;23172;53.550;9.964;2023-02-28T23:34:15;5.30;65.80
37285;DHT22;23172;53.550;9.964;2023-02-28T23:39:25;5.30;66.00
37285;DHT22;23172;53.550;9.964;2023-02-28T23:44:27;5.30;66.00
37285;DHT22;23172;53.550;9.964;2023-02-28T23:49:30;5.20;66.00
37285;DHT22;23172;53.550;9.964;2023-02-28T23:54:32;5.20;66.20
37285;DHT22;23172;53.550;9.964;2023-02-28T23:59:35;5.20;66.40
